createdAt,value
2023-04-02T00:02:22.632Z,100.00
2023-04-02T00:05:35.000Z,100.00
2023-04-02T00:08:37.710Z,100.00
2023-04-02T00:11:25.614Z,100.00
2023-04-02T00:14:09.902Z,100.00
2023-04-02T00:16:56.690Z,100.00
2023-04-02T00:20:04.203Z,100.00
2023-04-02T00:22:32.728Z,100.00
2023-04-02T00:25:07.967Z,100.00
2023-04-02T00:27:36.640Z,100.00
2023-04-02T00:30:04.501Z,100.00
2023-04-02T00:32:34.021Z,100.00
2023-04-02T00:35:01.906Z,100.00
2023-04-02T00:37:39.193Z,100.00
2023-04-02T00:40:19.766Z,100.00
2023-04-02T00:42:49.129Z,100.00
2023-04-02T00:45:22.006Z,100.00
2023-04-02T00:47:49.818Z,100.00
2023-04-02T00:50:34.538Z,100.00
2023-04-02T00:53:10.704Z,100.00
2023-04-02T00:55:41.538Z,100.00
2023-04-02T00:58:36.965Z,100.00
2023-04-02T01:01:04.993Z,100.00
2023-04-02T01:03:37.586Z,100.00
2023-04-02T01:06:28.788Z,100.00
2023-04-02T01:09:23.667Z,100.00
2023-04-02T01:12:27.428Z,100.00
2023-04-02T01:15:24.636Z,100.00
2023-04-02T01:18:44.298Z,100.00
2023-04-02T01:21:52.065Z,100.00
2023-04-02T01:24:21.147Z,100.00
2023-04-02T01:26:57.997Z,100.00
2023-04-02T01:29:46.373Z,100.00
2023-04-02T01:32:17.423Z,100.00
2023-04-02T01:34:47.951Z,100.00
2023-04-02T01:37:27.801Z,100.00
2023-04-02T01:40:17.470Z,100.00
2023-04-02T01:43:21.791Z,100.00
2023-04-02T01:45:48.807Z,100.00
2023-04-02T01:48:25.040Z,100.00
2023-04-02T01:50:56.152Z,100.00
2023-04-02T01:53:27.275Z,100.00
2023-04-02T01:55:57.289Z,100.00
2023-04-02T01:58:27.830Z,100.00
2023-04-02T02:01:03.616Z,100.00
2023-04-02T02:03:31.450Z,100.00
2023-04-02T02:05:59.926Z,100.00
2023-04-02T02:08:37.444Z,100.00
2023-04-02T02:11:05.180Z,100.00
2023-04-02T02:13:32.538Z,100.00
2023-04-02T02:16:01.163Z,100.00
2023-04-02T02:18:29.416Z,100.00
2023-04-02T02:21:00.332Z,100.00
2023-04-02T02:23:30.408Z,100.00
2023-04-02T02:25:57.435Z,100.00
2023-04-02T02:28:32.107Z,100.00
2023-04-02T02:31:23.036Z,100.00
2023-04-02T02:33:54.046Z,100.00
2023-04-02T02:36:33.695Z,100.00
2023-04-02T02:39:40.146Z,100.00
2023-04-02T02:42:31.997Z,100.00
2023-04-02T02:45:02.454Z,100.00
2023-04-02T02:47:33.305Z,100.00
2023-04-02T02:50:04.005Z,100.00
2023-04-02T02:52:38.441Z,100.00
2023-04-02T02:55:13.763Z,100.00
2023-04-02T02:57:54.335Z,100.00
2023-04-02T03:00:24.884Z,100.00
2023-04-02T03:02:55.536Z,100.00
2023-04-02T03:05:26.524Z,100.00
2023-04-02T03:07:57.366Z,100.00
2023-04-02T03:10:47.511Z,100.00
2023-04-02T03:13:35.671Z,100.00
2023-04-02T03:16:28.868Z,100.00
2023-04-02T03:19:02.778Z,100.00
2023-04-02T03:21:46.314Z,100.00
2023-04-02T03:24:18.264Z,100.00
2023-04-02T03:27:24.224Z,100.00
2023-04-02T03:30:10.210Z,100.00
2023-04-02T03:32:41.296Z,100.00
2023-04-02T03:35:19.300Z,100.00
2023-04-02T03:37:56.660Z,100.00
2023-04-02T03:40:32.123Z,100.00
2023-04-02T03:43:03.462Z,100.00
2023-04-02T03:45:38.904Z,100.00
2023-04-02T03:48:12.798Z,100.00
2023-04-02T03:51:04.413Z,100.00
2023-04-02T03:53:32.704Z,100.00
2023-04-02T03:56:01.804Z,100.00
2023-04-02T03:58:39.947Z,100.00
2023-04-02T04:01:20.874Z,100.00
2023-04-02T04:03:52.278Z,100.00
2023-04-02T04:06:25.122Z,100.00
2023-04-02T04:08:57.278Z,100.00
2023-04-02T04:11:30.859Z,100.00
2023-04-02T04:14:28.733Z,100.00
2023-04-02T04:16:55.826Z,100.00
2023-04-02T04:19:38.389Z,100.00
2023-04-02T04:22:14.755Z,100.00
2023-04-02T04:24:45.851Z,100.00
2023-04-02T04:27:20.748Z,100.00
2023-04-02T04:30:06.294Z,100.00
2023-04-02T04:32:50.643Z,100.00
2023-04-02T04:35:40.424Z,100.00
2023-04-02T04:38:12.397Z,100.00
2023-04-02T04:40:52.578Z,100.00
2023-04-02T04:43:42.768Z,100.00
2023-04-02T04:46:27.811Z,100.00
2023-04-02T04:49:19.058Z,100.00
2023-04-02T04:51:52.505Z,100.00
2023-04-02T04:54:20.625Z,100.00
2023-04-02T04:56:52.119Z,100.00
2023-04-02T04:59:31.083Z,100.00
2023-04-02T05:02:13.093Z,100.00
2023-04-02T05:04:42.462Z,100.00
2023-04-02T05:07:13.233Z,100.00
2023-04-02T05:10:15.989Z,100.00
2023-04-02T05:13:16.289Z,100.00
2023-04-02T05:16:27.772Z,100.00
2023-04-02T05:19:08.092Z,100.00
2023-04-02T05:21:45.062Z,100.00
2023-04-02T05:24:30.414Z,100.00
2023-04-02T05:27:02.799Z,100.00
2023-04-02T05:29:38.948Z,100.00
2023-04-02T05:32:29.723Z,100.00
2023-04-02T05:34:58.047Z,100.00
2023-04-02T05:37:29.668Z,100.00
2023-04-02T05:40:00.938Z,100.00
2023-04-02T05:42:31.591Z,100.00
2023-04-02T05:45:29.462Z,100.00
2023-04-02T05:48:02.052Z,100.00
2023-04-02T05:50:37.584Z,100.00
2023-04-02T05:53:11.402Z,100.00
2023-04-02T05:56:04.351Z,100.00
2023-04-02T05:58:48.797Z,100.00
2023-04-02T06:01:25.659Z,100.00
2023-04-02T06:04:20.161Z,100.00
2023-04-02T06:06:54.303Z,100.00
2023-04-02T06:09:48.746Z,100.00
2023-04-02T06:12:37.416Z,100.00
2023-04-02T06:15:06.942Z,100.00
2023-04-02T06:17:47.325Z,100.00
2023-04-02T06:20:18.326Z,100.00
2023-04-02T06:22:50.382Z,100.00
2023-04-02T06:25:26.631Z,100.00
2023-04-02T06:27:57.147Z,100.00
2023-04-02T06:30:32.979Z,100.00
2023-04-02T06:33:00.148Z,100.00
2023-04-02T06:35:28.165Z,100.00
2023-04-02T06:38:00.032Z,100.00
2023-04-02T06:41:03.402Z,100.00
2023-04-02T06:43:57.000Z,100.00
2023-04-02T06:46:43.532Z,100.00
2023-04-02T06:49:19.639Z,100.00
2023-04-02T06:51:51.124Z,100.00
2023-04-02T06:54:18.752Z,100.00
2023-04-02T06:56:48.980Z,100.00
2023-04-02T06:59:17.012Z,100.00
2023-04-02T07:01:55.293Z,100.00
2023-04-02T07:04:23.457Z,100.00
2023-04-02T07:06:51.520Z,100.00
2023-04-02T07:09:19.053Z,100.00
2023-04-02T07:11:46.694Z,100.00
2023-04-02T07:14:14.051Z,100.00
2023-04-02T07:16:43.187Z,100.00
2023-04-02T07:19:19.526Z,100.00
2023-04-02T07:21:47.517Z,100.00
2023-04-02T07:24:14.864Z,100.00
2023-04-02T07:26:42.201Z,100.00
2023-04-02T07:29:15.394Z,100.00
2023-04-02T07:31:42.622Z,100.00
2023-04-02T07:34:10.620Z,100.00
2023-04-02T07:36:37.863Z,100.00
2023-04-02T07:39:05.372Z,100.00
2023-04-02T07:41:32.385Z,100.00
2023-04-02T07:43:59.354Z,100.00
2023-04-02T07:46:26.899Z,100.00
2023-04-02T07:48:53.844Z,100.00
2023-04-02T07:51:24.123Z,100.00
2023-04-02T07:53:56.045Z,100.00
2023-04-02T07:56:25.494Z,100.00
2023-04-02T07:58:52.502Z,100.00
2023-04-02T08:01:25.964Z,100.00
2023-04-02T08:03:54.964Z,100.00
2023-04-02T08:06:22.777Z,100.00
2023-04-02T08:08:50.674Z,100.00
2023-04-02T08:11:17.838Z,100.00
2023-04-02T08:13:44.886Z,100.00
2023-04-02T08:16:12.009Z,100.00
2023-04-02T08:18:39.307Z,100.00
2023-04-02T08:21:08.986Z,100.00
2023-04-02T08:23:37.403Z,100.00
2023-04-02T08:26:06.368Z,100.00
2023-04-02T08:28:35.726Z,100.00
2023-04-02T08:31:04.964Z,100.00
2023-04-02T08:33:32.314Z,100.00
2023-04-02T08:35:59.546Z,100.00
2023-04-02T08:38:28.248Z,100.00
2023-04-02T08:41:00.125Z,100.00
2023-04-02T08:43:54.572Z,100.00
2023-04-02T08:46:39.227Z,100.00
2023-04-02T08:49:27.294Z,100.00
2023-04-02T08:51:54.344Z,100.00
2023-04-02T08:54:24.469Z,100.00
2023-04-02T08:57:02.475Z,100.00
2023-04-02T08:59:39.346Z,100.00
2023-04-02T09:02:30.029Z,100.00
2023-04-02T09:05:02.949Z,100.00
2023-04-02T09:07:33.261Z,100.00
2023-04-02T09:10:01.232Z,100.00
2023-04-02T09:12:30.822Z,100.00
2023-04-02T09:15:24.929Z,100.00
2023-04-02T09:18:01.182Z,100.00
2023-04-02T09:20:29.531Z,100.00
2023-04-02T09:22:57.537Z,100.00
2023-04-02T09:25:32.524Z,100.00
2023-04-02T09:28:05.124Z,100.00
2023-04-02T09:30:32.150Z,100.00
2023-04-02T09:33:07.882Z,100.00
2023-04-02T09:35:37.882Z,100.00
2023-04-02T09:38:07.766Z,100.00
2023-04-02T09:40:54.882Z,100.00
2023-04-02T09:43:25.784Z,100.00
2023-04-02T09:46:04.007Z,100.00
2023-04-02T09:48:39.527Z,100.00
2023-04-02T09:51:07.749Z,100.00
2023-04-02T09:53:36.033Z,100.00
2023-04-02T09:56:12.526Z,100.00
2023-04-02T09:58:40.828Z,100.00
2023-04-02T10:01:33.494Z,100.00
2023-04-02T10:04:03.696Z,100.00
2023-04-02T10:06:32.947Z,100.00
2023-04-02T10:09:21.399Z,100.00
2023-04-02T10:11:51.605Z,100.00
2023-04-02T10:14:25.067Z,100.00
2023-04-02T10:17:05.772Z,100.00
2023-04-02T10:19:39.000Z,100.00
2023-04-02T10:22:16.823Z,100.00
2023-04-02T10:24:43.962Z,100.00
2023-04-02T10:27:27.181Z,100.00
2023-04-02T10:30:02.704Z,100.00
2023-04-02T10:32:43.412Z,100.00
2023-04-02T10:35:30.941Z,100.00
2023-04-02T10:38:00.794Z,100.00
2023-04-02T10:40:34.966Z,100.00
2023-04-02T10:43:44.566Z,100.00
2023-04-02T10:46:35.043Z,100.00
2023-04-02T10:49:22.377Z,100.00
2023-04-02T10:52:05.546Z,100.00
2023-04-02T10:54:48.231Z,100.00
2023-04-02T10:57:30.605Z,100.00
2023-04-02T13:01:32.123Z,100.00
2023-04-02T13:04:19.413Z,100.00
2023-04-02T13:06:52.497Z,100.00
2023-04-02T13:09:50.795Z,100.00
2023-04-02T13:12:40.316Z,100.00
2023-04-02T13:15:20.417Z,100.00
2023-04-02T13:18:02.058Z,98.82
2023-04-02T13:20:32.302Z,100.00
2023-04-02T13:23:01.139Z,99.73
2023-04-02T13:25:35.719Z,100.00
2023-04-02T13:28:03.086Z,100.00
2023-04-02T13:30:30.090Z,99.78
2023-04-02T13:32:57.139Z,100.00
2023-04-02T13:35:24.214Z,100.00
2023-04-02T13:37:51.694Z,100.00
2023-04-02T13:40:19.550Z,100.00
2023-04-02T13:42:47.980Z,100.00
2023-04-02T13:45:33.758Z,100.00
2023-04-02T13:48:03.802Z,100.00
2023-04-02T13:50:33.275Z,100.00
2023-04-02T13:53:07.203Z,100.00
2023-04-02T13:55:40.286Z,100.00
2023-04-02T13:58:07.454Z,100.00
2023-04-02T14:00:38.130Z,100.00
2023-04-02T14:03:22.121Z,100.00
2023-04-02T14:06:01.691Z,100.00
2023-04-02T14:08:44.908Z,100.00
2023-04-02T14:11:31.294Z,100.00
2023-04-02T14:14:33.691Z,99.50
2023-04-02T14:17:24.904Z,99.29
2023-04-02T14:20:13.610Z,99.93
2023-04-02T14:22:56.534Z,99.27
2023-04-02T14:25:54.969Z,100.00
2023-04-02T14:28:40.295Z,98.82
2023-04-02T14:31:29.218Z,99.14
2023-04-02T14:34:12.118Z,97.40
2023-04-02T14:36:48.205Z,98.49
2023-04-02T14:39:26.675Z,97.74
2023-04-02T14:42:01.763Z,98.43
2023-04-02T14:44:36.549Z,98.93
2023-04-02T14:47:15.859Z,98.63
2023-04-02T14:49:46.461Z,97.96
2023-04-02T14:52:21.379Z,97.84
2023-04-02T14:54:56.700Z,98.68
2023-04-02T14:57:29.580Z,97.80
2023-04-02T15:00:10.144Z,99.03
2023-04-02T15:03:12.316Z,98.75
2023-04-02T15:05:49.040Z,97.38
2023-04-02T15:08:48.329Z,98.73
2023-04-02T15:11:42.072Z,97.30
2023-04-02T15:14:16.902Z,97.79
2023-04-02T15:16:44.830Z,97.44
2023-04-02T15:19:19.173Z,98.58
2023-04-02T15:22:14.234Z,99.59
2023-04-02T15:24:56.585Z,98.72
2023-04-02T15:27:35.967Z,98.10
2023-04-02T15:30:12.017Z,96.20
2023-04-02T15:32:40.880Z,96.49
2023-04-02T15:35:27.376Z,95.84
2023-04-02T15:38:19.353Z,96.56
2023-04-02T15:41:32.443Z,97.29
2023-04-02T15:44:11.326Z,98.01
2023-04-02T15:46:52.312Z,96.56
2023-04-02T15:49:34.106Z,95.73
2023-04-02T15:52:14.365Z,95.03
2023-04-02T15:54:41.582Z,94.21
2023-04-02T15:57:46.841Z,95.46
2023-04-02T16:00:27.005Z,94.56
2023-04-02T16:03:12.595Z,95.67
2023-04-02T16:06:17.425Z,95.03
2023-04-02T16:09:00.267Z,94.79
2023-04-02T16:11:28.426Z,94.33
2023-04-02T16:14:11.961Z,94.97
2023-04-02T16:16:42.769Z,95.05
2023-04-02T16:19:33.861Z,95.13
2023-04-02T16:22:17.500Z,96.67
2023-04-02T16:24:48.944Z,96.17
2023-04-02T16:27:31.028Z,96.02
2023-04-02T16:30:26.927Z,94.40
2023-04-02T16:33:22.367Z,94.46
2023-04-02T16:36:04.417Z,94.64
2023-04-02T16:38:44.252Z,95.63
2023-04-02T16:41:36.635Z,96.47
2023-04-02T16:44:03.703Z,95.96
2023-04-02T16:46:46.971Z,95.26
2023-04-02T16:49:23.168Z,96.11
2023-04-02T16:52:11.695Z,96.48
2023-04-02T16:55:11.505Z,95.80
2023-04-02T16:58:09.764Z,96.43
2023-04-02T17:00:47.681Z,94.27
2023-04-02T17:03:36.632Z,93.31
2023-04-02T17:06:18.328Z,92.84
2023-04-02T17:09:02.219Z,93.89
2023-04-02T17:11:42.052Z,93.89
2023-04-02T17:14:30.369Z,94.47
2023-04-02T17:17:02.510Z,94.57
2023-04-02T17:19:31.811Z,94.53
2023-04-02T17:22:03.522Z,94.69
2023-04-02T17:24:40.095Z,96.13
2023-04-02T17:27:20.565Z,96.52
2023-04-02T17:29:53.202Z,96.20
2023-04-02T17:32:37.141Z,95.73
2023-04-02T17:35:43.188Z,95.87
2023-04-02T17:38:35.446Z,96.81
2023-04-02T17:41:14.964Z,96.49
2023-04-02T17:43:44.982Z,96.84
2023-04-02T17:46:11.982Z,96.44
2023-04-02T17:49:12.282Z,96.52
2023-04-02T17:52:17.270Z,96.80
2023-04-02T17:55:03.425Z,95.60
2023-04-02T17:57:36.154Z,95.50
2023-04-02T18:00:21.437Z,97.04
2023-04-02T18:03:10.758Z,96.37
2023-04-02T18:05:44.989Z,96.71
2023-04-02T18:08:33.160Z,97.07
2023-04-02T18:11:00.819Z,96.91
2023-04-02T18:13:38.436Z,96.33
2023-04-02T18:16:22.813Z,96.69
2023-04-02T18:19:06.315Z,97.61
2023-04-02T18:21:46.664Z,97.27
2023-04-02T18:24:47.735Z,96.91
2023-04-02T18:27:39.234Z,97.44
2023-04-02T18:30:26.382Z,97.90
2023-04-02T18:33:32.442Z,96.78
2023-04-02T18:36:10.853Z,98.43
2023-04-02T18:38:50.296Z,97.78
2023-04-02T18:41:37.755Z,98.34
2023-04-02T18:44:44.011Z,98.95
2023-04-02T18:47:28.388Z,98.70
2023-04-02T18:50:28.332Z,99.55
2023-04-02T18:52:55.336Z,99.04
2023-04-02T18:55:28.355Z,99.24
2023-04-02T18:58:06.605Z,99.35
2023-04-02T19:00:42.006Z,99.80
2023-04-02T19:03:33.045Z,100.00
2023-04-02T19:06:04.589Z,99.85
2023-04-02T19:09:09.947Z,100.00
2023-04-02T19:11:37.120Z,100.00
2023-04-02T19:14:19.253Z,100.00
2023-04-02T19:17:06.392Z,100.00
2023-04-02T19:19:51.842Z,100.00
2023-04-02T19:22:57.652Z,100.00
2023-04-02T19:25:36.773Z,99.44
2023-04-02T19:28:30.724Z,100.00
2023-04-02T19:31:30.161Z,100.00
2023-04-02T19:34:12.985Z,100.00
2023-04-02T19:36:56.790Z,100.00
2023-04-02T19:39:32.500Z,100.00
2023-04-02T19:42:09.738Z,100.00
2023-04-02T19:44:43.534Z,100.00
2023-04-02T19:47:11.845Z,100.00
2023-04-02T19:49:39.834Z,100.00
2023-04-02T19:52:08.024Z,100.00
2023-04-02T19:54:38.198Z,100.00
2023-04-02T19:57:06.793Z,100.00
2023-04-02T19:59:35.120Z,100.00
2023-04-02T20:02:07.102Z,100.00
2023-04-02T20:04:36.471Z,100.00
2023-04-02T20:07:04.472Z,100.00
2023-04-02T20:09:31.769Z,100.00
2023-04-02T20:11:58.944Z,100.00
2023-04-02T20:14:25.938Z,100.00
2023-04-02T20:16:53.071Z,100.00
2023-04-02T20:19:26.100Z,100.00
2023-04-02T20:21:53.099Z,100.00
2023-04-02T20:24:20.274Z,100.00
2023-04-02T20:26:47.268Z,100.00
2023-04-02T20:29:14.282Z,100.00
2023-04-02T20:31:41.381Z,100.00
2023-04-02T20:34:09.802Z,100.00
2023-04-02T20:36:36.925Z,100.00
2023-04-02T20:39:07.346Z,100.00
2023-04-02T20:41:34.626Z,100.00
2023-04-02T20:44:01.672Z,100.00
2023-04-02T20:46:28.758Z,100.00
2023-04-02T20:48:56.568Z,100.00
2023-04-02T20:51:24.866Z,100.00
2023-04-02T20:53:52.918Z,100.00
2023-04-02T20:56:22.610Z,100.00
2023-04-02T20:58:50.355Z,100.00
2023-04-02T21:01:21.293Z,100.00
2023-04-02T21:03:49.628Z,100.00
2023-04-02T21:06:21.887Z,100.00
2023-04-02T21:08:49.791Z,100.00
2023-04-02T21:11:17.962Z,100.00
2023-04-02T21:13:45.696Z,100.00
2023-04-02T21:16:16.786Z,100.00
2023-04-02T21:18:44.131Z,100.00
2023-04-02T21:21:13.869Z,100.00
2023-04-02T21:23:42.589Z,100.00
2023-04-02T21:26:15.046Z,100.00
2023-04-02T21:28:43.208Z,100.00
2023-04-02T21:31:13.275Z,100.00
2023-04-02T21:33:43.324Z,100.00
2023-04-02T21:36:13.767Z,100.00
2023-04-02T21:38:55.212Z,100.00
2023-04-02T21:41:26.782Z,100.00
2023-04-02T21:43:57.032Z,100.00
2023-04-02T21:46:27.195Z,100.00
2023-04-02T21:48:56.167Z,100.00
2023-04-02T21:51:26.294Z,100.00
2023-04-02T21:53:56.806Z,100.00
2023-04-02T21:56:30.199Z,100.00
2023-04-02T21:58:58.752Z,100.00
2023-04-02T22:01:28.149Z,100.00
2023-04-02T22:04:00.453Z,100.00
2023-04-02T22:06:29.415Z,100.00
2023-04-02T22:09:02.415Z,100.00
2023-04-02T22:11:35.909Z,100.00
2023-04-02T22:14:03.816Z,100.00
2023-04-02T22:16:33.303Z,100.00
2023-04-02T22:19:02.194Z,100.00
2023-04-02T22:21:31.979Z,100.00
2023-04-02T22:24:09.375Z,100.00
2023-04-02T22:26:36.977Z,100.00
2023-04-02T22:29:05.095Z,100.00
2023-04-02T22:31:35.311Z,100.00
2023-04-02T22:34:04.650Z,100.00
2023-04-02T22:36:32.434Z,100.00
2023-04-02T22:39:00.567Z,100.00
2023-04-02T22:41:29.785Z,100.00
2023-04-02T22:43:57.228Z,100.00
2023-04-02T22:46:25.250Z,100.00
2023-04-02T22:48:53.117Z,100.00
2023-04-02T22:51:21.978Z,100.00
2023-04-02T22:53:49.577Z,100.00
2023-04-02T22:56:22.877Z,100.00
2023-04-02T22:58:49.932Z,100.00
2023-04-02T23:01:21.818Z,100.00
2023-04-02T23:03:49.573Z,100.00
2023-04-02T23:06:18.460Z,100.00
2023-04-02T23:08:46.410Z,100.00
2023-04-02T23:11:19.466Z,100.00
2023-04-02T23:13:48.547Z,100.00
2023-04-02T23:16:16.844Z,100.00
2023-04-02T23:18:47.517Z,100.00
2023-04-02T23:21:15.288Z,100.00
2023-04-02T23:23:42.523Z,100.00
2023-04-02T23:26:16.578Z,100.00
2023-04-02T23:28:43.964Z,100.00
2023-04-02T23:31:17.130Z,100.00
2023-04-02T23:33:44.241Z,100.00
2023-04-02T23:36:15.196Z,100.00
2023-04-02T23:38:42.237Z,100.00
2023-04-02T23:41:14.146Z,100.00
2023-04-02T23:43:41.291Z,100.00
2023-04-02T23:46:08.546Z,100.00
2023-04-02T23:48:35.593Z,100.00
2023-04-02T23:51:02.570Z,100.00
2023-04-02T23:53:29.657Z,100.00
2023-04-02T23:55:56.660Z,100.00
2023-04-02T23:58:23.611Z,100.00
